Time;durP1;ratioP1;P1;durP2;ratioP2;P2;SDS_P1;SDS_P2;PMS_P1;PMS_P2;Temp;Humidity;BMP_temperature;BMP_pressure;BME280_temperature;BME280_humidity;BME280_pressure;Samples;Min_cycle;Max_cycle;Signal;HPM_P1;HPM_P2
2023/06/27 00:01:47;;;;;;;19.55;12.75;;;;;;;27.57;49.37;100936.00;4878178;28;20105;-80
2023/06/27 00:04:22;;;;;;;17.45;13.05;;;;;;;28.28;49.56;100947.53;4884680;28;20419;-81
2023/06/27 00:06:50;;;;;;;17.02;12.20;;;;;;;28.10;49.58;100950.44;4899615;28;20121;-81
2023/06/27 00:09:17;;;;;;;21.60;13.10;;;;;;;28.21;48.49;100938.66;4878974;28;20153;-82
2023/06/27 00:11:47;;;;;;;16.38;12.63;;;;;;;28.02;47.82;100951.69;4886913;28;20645;-79
2023/06/27 00:14:22;;;;;;;17.60;13.43;;;;;;;27.76;48.01;100830.31;4905012;28;20342;-80
2023/06/27 00:16:52;;;;;;;16.75;12.52;;;;;;;28.03;47.25;100944.31;4880832;28;20524;-81
2023/06/27 00:19:23;;;;;;;17.25;13.18;;;;;;;27.86;46.58;100947.81;4873651;28;20346;-78
2023/06/27 00:21:59;;;;;;;21.23;12.70;;;;;;;27.75;47.40;100943.22;4886265;28;20062;-81
2023/06/27 00:24:25;;;;;;;21.42;13.32;;;;;;;27.64;47.86;100952.25;4909189;28;20363;-80
2023/06/27 00:26:59;;;;;;;18.65;12.00;;;;;;;27.58;49.39;100932.22;4913983;28;20049;-80
2023/06/27 00:29:27;;;;;;;16.65;11.88;;;;;;;27.83;50.69;100931.94;4920522;28;20053;-78
2023/06/27 00:31:55;;;;;;;18.90;11.65;;;;;;;27.74;49.20;100957.09;4926561;28;20082;-78
2023/06/27 00:34:22;;;;;;;19.67;12.32;;;;;;;27.67;48.47;100946.31;4930186;28;20144;-80
2023/06/27 00:36:49;;;;;;;14.63;11.43;;;;;;;27.63;48.54;100951.44;4907247;28;20908;-79
2023/06/27 00:39:16;;;;;;;20.70;12.27;;;;;;;27.60;48.55;100921.06;4918828;28;20667;-80
2023/06/27 00:41:45;;;;;;;18.73;12.95;;;;;;;27.62;48.02;100941.59;4919653;28;20751;-80
2023/06/27 00:44:12;;;;;;;23.52;13.50;;;;;;;27.47;48.15;100931.19;4917986;28;20449;-80
2023/06/27 00:46:41;;;;;;;20.00;13.05;;;;;;;27.77;49.76;100921.97;4908120;28;20790;-80
2023/06/27 00:49:11;;;;;;;17.20;12.80;;;;;;;28.07;51.01;100940.84;4917064;28;20178;-77
2023/06/27 00:51:47;;;;;;;20.67;13.45;;;;;;;27.92;48.14;100927.75;4935463;28;20304;-78
2023/06/27 00:54:16;;;;;;;17.05;12.93;;;;;;;27.87;49.76;100919.47;4915120;28;20557;-79
2023/06/27 00:56:48;;;;;;;15.32;12.15;;;;;;;27.86;49.81;100895.97;4923841;28;20519;-80
2023/06/27 00:59:15;;;;;;;21.27;12.57;;;;;;;27.76;48.18;100906.66;4917245;28;20322;-79
2023/06/27 01:01:42;;;;;;;14.80;11.70;;;;;;;27.66;48.92;100928.28;4911013;28;20072;-81
2023/06/27 01:04:09;;;;;;;17.92;13.02;;;;;;;27.57;49.61;100925.09;4930444;28;20420;-79
2023/06/27 01:07:02;;;;;;;16.95;13.00;;;;;;;27.61;48.63;100925.47;4915516;28;20050;-78
2023/06/27 01:09:48;;;;;;;18.23;13.40;;;;;;;27.49;48.39;100928.22;4921702;28;20046;-80
2023/06/27 01:12:27;;;;;;;21.33;12.57;;;;;;;27.68;49.01;100920.72;4930489;28;20109;-80
2023/06/27 01:14:59;;;;;;;18.55;12.77;;;;;;;27.65;49.14;100910.28;4920747;28;20133;-79
2023/06/27 01:17:28;;;;;;;18.88;12.90;;;;;;;27.82;50.53;100877.63;4918428;28;20050;-80
2023/06/27 01:20:12;;;;;;;13.73;11.00;;;;;;;27.76;49.40;100887.56;4937449;28;20076;-78
2023/06/27 01:22:46;;;;;;;15.70;11.32;;;;;;;28.00;50.12;100903.88;4933650;28;20500;-79
2023/06/27 01:25:16;;;;;;;16.50;12.23;;;;;;;28.27;50.48;100891.25;4938402;28;20624;-80
2023/06/27 01:27:42;;;;;;;14.57;11.10;;;;;;;28.58;49.92;100885.50;4936299;28;20050;-80
2023/06/27 01:30:10;;;;;;;18.80;12.43;;;;;;;28.24;48.90;100891.75;4907094;28;20182;-77
2023/06/27 01:32:37;;;;;;;16.60;12.60;;;;;;;28.07;49.91;100897.19;4919445;28;20121;-79
2023/06/27 01:35:11;;;;;;;17.30;12.32;;;;;;;27.75;49.84;100866.84;4940415;28;20051;-80
2023/06/27 01:37:46;;;;;;;19.65;12.20;;;;;;;27.71;48.99;100855.56;4935112;28;20066;-80
2023/06/27 01:40:17;;;;;;;19.75;13.70;;;;;;;27.75;48.30;100896.84;4916762;28;20303;-80
2023/06/27 01:42:50;;;;;;;19.55;12.90;;;;;;;27.68;48.58;100877.06;4923685;28;20651;-81
2023/06/27 01:45:17;;;;;;;17.13;12.83;;;;;;;27.58;48.41;100877.69;4942049;28;20047;-80
2023/06/27 01:47:45;;;;;;;17.75;11.55;;;;;;;27.55;50.35;100867.28;4941793;28;20062;-79
2023/06/27 01:50:13;;;;;;;14.52;12.50;;;;;;;27.48;50.58;100845.59;4923927;28;20049;-81
2023/06/27 01:52:43;;;;;;;17.52;13.02;;;;;;;27.20;48.85;100812.88;4920470;28;20096;-81
2023/06/27 01:55:09;;;;;;;20.48;12.88;;;;;;;27.55;50.19;100841.91;4924435;28;20446;-81
2023/06/27 01:57:39;;;;;;;19.30;12.57;;;;;;;27.64;49.10;100864.97;4943705;28;20051;-79
2023/06/27 02:00:07;;;;;;;17.05;12.50;;;;;;;27.65;50.10;100867.47;4917573;28;20074;-81
2023/06/27 02:02:34;;;;;;;16.23;11.75;;;;;;;27.78;51.45;100849.16;4910980;28;20134;-81
2023/06/27 02:05:01;;;;;;;17.25;12.40;;;;;;;27.56;50.91;100829.94;4931479;28;20138;-82
2023/06/27 02:07:34;;;;;;;14.23;11.90;;;;;;;27.73;51.08;100860.78;4930868;28;20109;-80
2023/06/27 02:10:01;;;;;;;18.63;12.43;;;;;;;27.63;51.28;100831.44;4924536;28;20086;-79
2023/06/27 02:12:28;;;;;;;17.00;11.73;;;;;;;27.82;48.98;100856.63;4947467;28;20057;-80
2023/06/27 02:14:54;;;;;;;15.90;11.27;;;;;;;28.13;51.91;100859.88;4941144;28;20265;-80
2023/06/27 02:17:21;;;;;;;15.65;12.35;;;;;;;28.25;50.00;100837.97;4941165;28;20416;-80
2023/06/27 02:19:48;;;;;;;18.33;12.30;;;;;;;28.33;49.86;100821.22;4923646;28;20374;-80
2023/06/27 02:22:15;;;;;;;17.20;11.98;;;;;;;28.54;49.87;100857.84;4941485;28;20319;-79
2023/06/27 02:24:41;;;;;;;15.05;11.10;;;;;;;28.23;50.41;100824.59;4939724;28;20046;-81
2023/06/27 02:27:08;;;;;;;17.70;12.32;;;;;;;28.11;50.08;100849.25;4926007;28;20429;-81
2023/06/27 02:29:38;;;;;;;14.93;10.38;;;;;;;28.44;50.42;100850.31;4929581;28;20051;-81
2023/06/27 02:32:06;;;;;;;15.70;11.23;;;;;;;28.18;50.05;100848.22;4923680;28;20082;-79
2023/06/27 02:34:33;;;;;;;17.13;10.73;;;;;;;27.79;47.55;100843.44;4939681;28;20058;-79
2023/06/27 02:37:03;;;;;;;16.85;12.48;;;;;;;27.76;49.69;100852.13;4941225;28;20145;-80
2023/06/27 02:39:39;;;;;;;17.90;12.32;;;;;;;27.41;49.78;100825.84;4940857;28;20043;-79
2023/06/27 02:42:11;;;;;;;16.90;12.20;;;;;;;27.26;47.73;100825.53;4927747;28;20061;-80
2023/06/27 02:44:37;;;;;;;18.25;12.18;;;;;;;27.53;50.73;100849.50;4918770;28;20075;-79
2023/06/27 02:47:04;;;;;;;14.95;12.23;;;;;;;27.48;49.95;100853.78;4923662;28;20058;-81
2023/06/27 02:49:31;;;;;;;17.92;11.63;;;;;;;27.59;48.44;100829.44;4947429;28;20046;-80
2023/06/27 02:51:57;;;;;;;12.93;11.10;;;;;;;27.37;49.51;100830.13;4925015;28;20047;-80
2023/06/27 02:54:24;;;;;;;18.08;11.27;;;;;;;27.02;47.85;100787.44;4927048;28;20051;-79
2023/06/27 02:56:53;;;;;;;19.20;12.23;;;;;;;27.25;47.75;100856.56;4935649;28;20053;-79
2023/06/27 02:59:20;;;;;;;15.98;11.52;;;;;;;26.95;48.47;100827.59;4922476;28;20392;-79
2023/06/27 03:01:47;;;;;;;17.77;11.65;;;;;;;26.65;48.30;100803.22;4904118;29;20255;-78
2023/06/27 03:04:19;;;;;;;16.70;11.65;;;;;;;27.01;49.39;100856.59;4873466;28;20410;-77
2023/06/27 03:06:50;;;;;;;16.42;11.43;;;;;;;26.81;48.62;100820.75;4877722;29;20280;-79
2023/06/27 03:09:20;;;;;;;20.38;12.18;;;;;;;27.17;48.90;100848.75;4914746;29;20236;-78
2023/06/27 03:11:47;;;;;;;14.77;10.43;;;;;;;27.24;47.82;100841.31;4936911;28;20082;-78
2023/06/27 03:14:18;;;;;;;14.45;11.48;;;;;;;26.94;48.38;100804.13;4914814;29;20059;-79
2023/06/27 03:16:46;;;;;;;18.40;11.63;;;;;;;27.44;49.52;100863.50;4906683;29;20065;-78
2023/06/27 03:19:17;;;;;;;22.40;12.10;;;;;;;27.18;49.01;100807.63;4897462;28;20384;-79
2023/06/27 03:22:00;;;;;;;15.88;10.60;;;;;;;27.78;47.32;100854.63;4889359;28;20704;-80
2023/06/27 03:24:37;;;;;;;14.55;10.95;;;;;;;27.72;47.02;100850.97;4894339;28;20139;-81
2023/06/27 03:27:10;;;;;;;14.95;10.73;;;;;;;27.80;46.71;100850.56;4894809;29;20239;-81
2023/06/27 03:29:36;;;;;;;15.98;11.13;;;;;;;27.40;46.52;100826.88;4932041;28;20051;-78
2023/06/27 03:32:03;;;;;;;13.50;10.23;;;;;;;27.64;47.40;100859.53;4938109;28;20055;-80
2023/06/27 03:34:34;;;;;;;17.30;11.52;;;;;;;27.47;47.52;100871.19;4912773;29;20075;-81
2023/06/27 03:37:00;;;;;;;17.33;10.95;;;;;;;27.60;48.63;100848.28;4880929;29;20086;-79
2023/06/27 03:39:28;;;;;;;16.73;11.70;;;;;;;27.88;49.20;100869.28;4904938;29;20059;-81
2023/06/27 03:41:55;;;;;;;12.50;9.90;;;;;;;28.07;48.92;100874.53;4922654;29;20130;-80
2023/06/27 03:44:22;;;;;;;16.98;12.85;;;;;;;27.74;48.78;100876.06;4914131;29;20158;-79
2023/06/27 03:46:49;;;;;;;15.40;10.45;;;;;;;27.58;49.18;100882.34;4896384;29;20257;-80
2023/06/27 03:49:15;;;;;;;13.57;10.45;;;;;;;27.19;49.91;100847.47;4902715;29;20515;-79
2023/06/27 03:51:42;;;;;;;17.98;12.45;;;;;;;27.15;49.43;100868.06;4912278;29;20313;-78
2023/06/27 03:54:09;;;;;;;19.45;12.00;;;;;;;27.07;49.52;100858.38;4903939;29;20126;-80
2023/06/27 03:56:36;;;;;;;15.15;12.98;;;;;;;26.72;49.15;100827.63;4913728;29;20285;-79
2023/06/27 03:59:06;;;;;;;23.30;11.20;;;;;;;27.07;51.50;100861.09;4918998;29;20054;-78
2023/06/27 04:01:35;;;;;;;14.82;10.85;;;;;;;27.60;50.94;100837.38;4905030;28;20043;-79
2023/06/27 04:04:02;;;;;;;18.67;11.85;;;;;;;27.96;50.10;100868.06;4917722;28;20866;-80
2023/06/27 04:06:28;;;;;;;19.15;11.52;;;;;;;27.70;50.08;100847.66;4902267;28;20101;-77
2023/06/27 04:08:57;;;;;;;18.17;11.63;;;;;;;27.61;50.36;100800.03;4940727;28;20277;-78
2023/06/27 04:11:24;;;;;;;17.60;11.25;;;;;;;28.15;49.13;100855.00;4926768;28;20062;-79
2023/06/27 04:13:54;;;;;;;17.83;11.35;;;;;;;28.24;48.59;100878.09;4944833;28;20089;-81
2023/06/27 04:16:21;;;;;;;25.23;12.25;;;;;;;27.82;49.13;100834.81;4963477;28;20049;-79
2023/06/27 04:18:51;;;;;;;18.33;11.50;;;;;;;27.96;48.66;100883.59;4966442;28;20527;-80
2023/06/27 04:21:22;;;;;;;19.75;11.90;;;;;;;27.40;48.13;100854.16;4947865;28;20054;-80
2023/06/27 04:23:54;;;;;;;15.50;11.43;;;;;;;27.17;49.54;100865.94;4899536;28;20046;-79
2023/06/27 04:26:20;;;;;;;18.02;12.50;;;;;;;27.29;49.84;100895.91;4906729;28;20290;-80
2023/06/27 04:32:28;;;;;;;19.48;12.02;;;;;;;27.61;49.69;100833.56;4932799;28;20309;-80
2023/06/27 04:34:57;;;;;;;17.48;11.10;;;;;;;27.69;49.63;100837.81;4906475;28;20054;-80
2023/06/27 04:37:29;;;;;;;17.48;11.38;;;;;;;28.13;49.61;100881.72;4911099;28;20488;-81
2023/06/27 04:51:17;;;;;;;22.65;12.13;;;;;;;28.62;48.02;100868.38;5103713;22;25283599;-78
2023/06/27 04:53:45;;;;;;;19.15;12.45;;;;;;;28.72;48.05;100884.91;6109188;22;20034;-79
2023/06/27 04:56:12;;;;;;;18.80;12.15;;;;;;;28.44;47.22;100835.84;6194123;23;20016;-78
2023/06/27 04:58:38;;;;;;;21.75;12.98;;;;;;;28.44;47.40;100842.13;6191667;22;20297;-79
2023/06/27 05:01:14;;;;;;;22.73;13.10;;;;;;;28.48;47.79;100880.72;6208312;22;20055;-80
2023/06/27 05:03:49;;;;;;;21.30;12.10;;;;;;;28.17;48.03;100824.75;6190542;23;20020;-80
2023/06/27 05:06:16;;;;;;;18.70;12.48;;;;;;;28.23;48.48;100849.16;6205329;22;20018;-80
2023/06/27 05:08:42;;;;;;;21.65;13.38;;;;;;;28.14;48.99;100842.47;6173797;23;20439;-79
2023/06/27 05:11:09;;;;;;;19.23;12.85;;;;;;;28.18;48.53;100843.63;6186027;22;20623;-82
2023/06/27 05:13:39;;;;;;;16.20;11.02;;;;;;;28.26;48.48;100848.66;6182122;22;20069;-80
2023/06/27 05:16:06;;;;;;;17.73;12.02;;;;;;;28.37;48.35;100873.38;6178587;23;20313;-78
2023/06/27 05:18:36;;;;;;;22.27;12.32;;;;;;;28.28;48.65;100875.72;6180159;22;20489;-79
2023/06/27 05:21:10;;;;;;;16.08;11.30;;;;;;;28.33;48.66;100871.16;6177653;23;20020;-78
2023/06/27 05:23:37;;;;;;;24.90;13.45;;;;;;;28.33;48.76;100879.34;6177029;22;20550;-80
2023/06/27 05:26:04;;;;;;;30.10;13.13;;;;;;;27.85;48.88;100845.22;6174265;23;20024;-79
2023/06/27 05:28:39;;;;;;;19.88;12.55;;;;;;;27.68;49.30;100849.78;6163476;23;20074;-82
2023/06/27 05:31:05;;;;;;;13.48;11.07;;;;;;;27.65;49.60;100866.66;6172526;23;20339;-79
2023/06/27 05:33:35;;;;;;;23.08;13.05;;;;;;;27.70;49.20;100875.75;6187518;22;20016;-78
2023/06/27 05:36:02;;;;;;;22.67;13.13;;;;;;;26.97;49.73;100765.53;6172710;23;20023;-77
2023/06/27 05:38:29;;;;;;;19.63;12.65;;;;;;;27.77;49.58;100886.53;6174196;23;20024;-80
2023/06/27 05:41:02;;;;;;;20.73;12.52;;;;;;;26.52;49.82;100659.19;6175993;23;20348;-82
2023/06/27 05:43:32;;;;;;;22.65;12.80;;;;;;;27.80;49.43;100841.56;6185306;22;20027;-80
2023/06/27 05:46:01;;;;;;;16.42;11.63;;;;;;;27.98;49.92;100871.38;6201569;22;20351;-79
2023/06/27 05:48:32;;;;;;;16.33;11.77;;;;;;;28.38;49.67;100883.25;6168238;23;20086;-79
2023/06/27 05:51:00;;;;;;;16.60;11.43;;;;;;;28.31;49.23;100877.94;6201040;22;20079;-81
2023/06/27 05:53:40;;;;;;;18.85;12.45;;;;;;;27.94;48.08;100847.56;6178094;22;20016;-80
2023/06/27 05:56:08;;;;;;;20.58;11.88;;;;;;;27.91;47.89;100843.41;6195056;22;20156;-81
2023/06/27 05:58:36;;;;;;;26.98;13.80;;;;;;;28.20;48.27;100885.13;6193661;22;20663;-79
2023/06/27 06:01:05;;;;;;;22.70;11.95;;;;;;;28.19;48.77;100882.66;6198500;22;20022;-81
2023/06/27 06:03:36;;;;;;;20.52;12.75;;;;;;;28.24;49.13;100883.56;6197792;22;20297;-79
2023/06/27 06:06:03;;;;;;;24.02;13.82;;;;;;;28.09;49.56;100873.22;6191420;22;20069;-80
2023/06/27 06:08:36;;;;;;;20.88;13.43;;;;;;;28.11;48.48;100859.34;6223601;22;20012;-81
2023/06/27 06:11:04;;;;;;;21.38;11.82;;;;;;;28.50;49.07;100889.50;6211101;22;20016;-79
2023/06/27 06:13:31;;;;;;;15.95;12.02;;;;;;;28.51;48.49;100874.75;6206596;22;20062;-80
2023/06/27 06:16:05;;;;;;;15.20;11.75;;;;;;;28.44;48.51;100869.41;6207535;22;20095;-81
2023/06/27 06:18:35;;;;;;;21.02;12.35;;;;;;;28.21;48.35;100848.59;6197230;22;20081;-82
2023/06/27 06:21:04;;;;;;;20.75;12.45;;;;;;;28.34;48.73;100863.78;6183529;22;20016;-81
2023/06/27 06:23:34;;;;;;;18.23;11.52;;;;;;;28.45;47.38;100878.44;6211377;22;20112;-81
2023/06/27 06:26:04;;;;;;;20.02;10.93;;;;;;;28.62;46.69;100864.78;6192921;22;20020;-80
2023/06/27 06:28:31;;;;;;;17.40;11.47;;;;;;;28.69;47.69;100862.72;6209601;22;20409;-80
2023/06/27 06:31:04;;;;;;;15.68;11.20;;;;;;;28.81;48.21;100889.94;6206837;22;20240;-81
2023/06/27 06:33:33;;;;;;;12.77;9.95;;;;;;;28.71;46.55;100885.16;6209000;22;20069;-79
2023/06/27 06:36:00;;;;;;;15.63;11.13;;;;;;;28.58;46.19;100842.63;6191052;22;20467;-79
2023/06/27 06:38:30;;;;;;;15.27;11.05;;;;;;;28.81;47.17;100862.63;6209962;22;21007;-80
2023/06/27 06:40:58;;;;;;;16.30;11.10;;;;;;;29.12;46.18;100892.06;6210641;22;20503;-78
2023/06/27 06:43:25;;;;;;;17.45;11.93;;;;;;;29.04;46.35;100884.28;6201075;22;20024;-81
2023/06/27 06:45:55;;;;;;;13.53;10.37;;;;;;;29.09;46.65;100895.31;6212194;22;20271;-78
2023/06/27 06:48:32;;;;;;;17.75;10.27;;;;;;;29.06;46.49;100887.59;6201463;22;20111;-81
2023/06/27 06:51:02;;;;;;;20.95;11.77;;;;;;;28.72;47.16;100833.00;6227493;22;20020;-77
2023/06/27 06:53:33;;;;;;;16.10;10.60;;;;;;;29.15;47.38;100897.03;6216216;22;20020;-79
2023/06/27 06:56:04;;;;;;;14.00;10.38;;;;;;;29.29;47.16;100897.47;6208341;22;20023;-77
2023/06/27 06:58:31;;;;;;;17.10;10.75;;;;;;;29.27;45.53;100890.59;6242212;22;20042;-79
2023/06/27 07:00:58;;;;;;;21.00;11.10;;;;;;;29.21;45.67;100888.91;6246795;22;20100;-80
2023/06/27 07:03:24;;;;;;;16.15;11.27;;;;;;;29.11;47.22;100874.00;6248574;22;20023;-81
2023/06/27 07:05:56;;;;;;;13.63;11.15;;;;;;;28.91;46.86;100838.16;6241425;22;20486;-80
2023/06/27 07:08:26;;;;;;;14.98;10.85;;;;;;;28.79;47.00;100841.03;6244570;22;20016;-79
2023/06/27 07:10:53;;;;;;;22.98;12.40;;;;;;;28.81;47.14;100840.75;6247778;22;20031;-81
2023/06/27 07:13:24;;;;;;;19.08;11.93;;;;;;;28.91;46.93;100849.09;6222586;22;20058;-81
2023/06/27 07:15:54;;;;;;;18.73;11.30;;;;;;;29.27;47.90;100893.34;6223685;22;20051;-78
2023/06/27 07:18:21;;;;;;;23.02;12.25;;;;;;;29.29;47.44;100892.00;6219591;22;20015;-79
2023/06/27 07:20:48;;;;;;;19.00;12.18;;;;;;;29.27;48.21;100899.63;6202269;22;20180;-79
2023/06/27 07:23:16;;;;;;;26.55;11.75;;;;;;;29.27;47.99;100898.81;6196042;22;20418;-78
2023/06/27 07:25:42;;;;;;;19.02;11.48;;;;;;;29.39;48.06;100899.50;6187117;22;20051;-79
2023/06/27 07:28:09;;;;;;;20.85;13.40;;;;;;;28.95;48.50;100848.34;6218559;22;20027;-79
2023/06/27 07:30:37;;;;;;;20.80;11.35;;;;;;;28.71;47.98;100779.44;6249381;22;20047;-78
2023/06/27 07:33:13;;;;;;;15.95;11.73;;;;;;;29.47;47.76;100888.13;6222382;22;20379;-77
2023/06/27 07:35:44;;;;;;;19.23;12.43;;;;;;;29.07;47.80;100831.84;6213739;22;20015;-78
2023/06/27 07:38:17;;;;;;;18.88;11.65;;;;;;;29.46;48.18;100886.47;6205992;22;20027;-79
2023/06/27 07:40:52;;;;;;;19.92;11.57;;;;;;;29.20;46.96;100844.31;6199691;22;20098;-79
2023/06/27 07:43:24;;;;;;;28.23;12.70;;;;;;;29.66;46.89;100880.41;6202256;22;20499;-79
2023/06/27 07:45:53;;;;;;;22.08;12.52;;;;;;;29.47;47.21;100871.72;6196247;22;20102;-78
2023/06/27 07:48:22;;;;;;;16.88;12.15;;;;;;;29.66;45.59;100882.31;6209133;22;20770;-81
2023/06/27 07:50:49;;;;;;;20.75;11.68;;;;;;;29.71;46.50;100882.38;6213810;22;20020;-79
2023/06/27 07:53:16;;;;;;;16.73;11.63;;;;;;;29.69;47.04;100857.22;6198291;22;20020;-79
2023/06/27 07:55:43;;;;;;;19.45;11.75;;;;;;;29.75;46.89;100875.34;6226103;22;20332;-78
2023/06/27 07:58:09;;;;;;;16.80;11.68;;;;;;;29.59;46.90;100857.91;6205989;22;20020;-79
2023/06/27 08:00:36;;;;;;;17.73;11.45;;;;;;;29.37;45.92;100825.09;6209942;22;20356;-75
2023/06/27 08:03:03;;;;;;;17.60;10.57;;;;;;;29.90;45.88;100880.94;6225694;22;20012;-79
2023/06/27 08:05:34;;;;;;;14.45;11.18;;;;;;;29.80;45.57;100842.53;6206532;22;20020;-79
2023/06/27 08:08:02;;;;;;;17.88;11.57;;;;;;;29.72;44.67;100846.56;6209751;22;20019;-80
2023/06/27 08:10:29;;;;;;;20.30;11.98;;;;;;;29.89;44.65;100871.09;6204043;22;20410;-80
2023/06/27 08:13:07;;;;;;;15.32;11.85;;;;;;;29.96;44.07;100868.16;6223081;22;20344;-79
2023/06/27 08:15:34;;;;;;;19.33;12.38;;;;;;;29.99;45.32;100879.41;6207640;22;20027;-80
2023/06/27 08:18:02;;;;;;;18.65;11.32;;;;;;;30.02;43.85;100851.50;6210749;22;20509;-79
2023/06/27 08:20:33;;;;;;;16.20;11.00;;;;;;;30.19;44.93;100861.50;6213590;22;20339;-80
2023/06/27 08:22:59;;;;;;;15.25;11.77;;;;;;;29.86;44.56;100822.38;6207153;22;20473;-80
2023/06/27 08:25:26;;;;;;;13.73;11.25;;;;;;;30.31;44.75;100870.41;6213051;22;20056;-81
2023/06/27 08:27:53;;;;;;;18.52;11.55;;;;;;;29.89;43.94;100816.38;6222071;22;20268;-81
2023/06/27 08:30:20;;;;;;;17.10;10.73;;;;;;;30.28;44.79;100864.63;6204227;22;20348;-80
2023/06/27 08:32:47;;;;;;;19.80;11.55;;;;;;;30.15;44.89;100855.75;6227188;22;20470;-78
2023/06/27 08:35:25;;;;;;;15.38;11.55;;;;;;;29.80;44.21;100788.63;6232092;22;20544;-78
2023/06/27 08:38:01;;;;;;;18.52;11.38;;;;;;;30.36;44.84;100847.72;6199836;22;20030;-80
2023/06/27 08:40:38;;;;;;;20.58;11.50;;;;;;;30.28;44.96;100864.63;6213045;22;20020;-80
2023/06/27 08:43:09;;;;;;;18.83;11.30;;;;;;;30.06;45.38;100818.16;6226889;22;20341;-76
2023/06/27 08:45:42;;;;;;;16.48;11.55;;;;;;;30.26;44.18;100839.44;6208637;22;20020;-77
2023/06/27 08:48:14;;;;;;;13.77;11.32;;;;;;;29.96;44.05;100799.75;6217409;22;20171;-78
2023/06/27 08:50:41;;;;;;;18.25;11.85;;;;;;;30.35;42.76;100848.81;6215656;22;20423;-80
2023/06/27 08:53:17;;;;;;;16.02;11.85;;;;;;;30.43;43.68;100857.34;6219500;22;20097;-79
2023/06/27 08:56:10;;;;;;;12.88;10.52;;;;;;;30.50;44.37;100861.78;6209922;22;20106;-79
2023/06/27 08:58:49;;;;;;;25.23;12.15;;;;;;;30.45;44.23;100857.09;6215347;22;20019;-80
2023/06/27 09:01:17;;;;;;;18.70;11.52;;;;;;;30.24;44.61;100793.94;6236765;22;20042;-80
2023/06/27 09:03:47;;;;;;;14.97;11.40;;;;;;;30.59;44.34;100844.59;6226230;22;20016;-79
2023/06/27 09:06:16;;;;;;;16.45;11.68;;;;;;;30.83;44.43;100856.00;6195100;22;20023;-81
2023/06/27 09:08:43;;;;;;;14.85;11.13;;;;;;;30.60;44.92;100861.84;6206053;22;20442;-79
2023/06/27 09:11:10;;;;;;;18.17;11.63;;;;;;;30.57;44.96;100856.91;6222812;22;20016;-79
2023/06/27 09:13:37;;;;;;;15.30;11.68;;;;;;;30.28;45.36;100832.59;6215331;22;20042;-81
2023/06/27 09:16:05;;;;;;;18.35;12.60;;;;;;;30.62;44.23;100857.75;6223360;22;20053;-78
2023/06/27 09:18:34;;;;;;;20.98;12.07;;;;;;;30.59;44.56;100838.28;6211451;22;20020;-80
2023/06/27 09:21:02;;;;;;;15.93;12.20;;;;;;;30.70;44.92;100831.78;6215019;22;20268;-79
2023/06/27 09:23:33;;;;;;;20.17;12.48;;;;;;;30.66;43.96;100800.53;6211770;22;20499;-79
2023/06/27 09:26:13;;;;;;;19.20;13.45;;;;;;;31.09;43.61;100847.91;6239318;22;20015;-79
2023/06/27 09:28:49;;;;;;;16.15;12.45;;;;;;;31.28;44.23;100851.81;6242907;22;20015;-80
2023/06/27 09:31:26;;;;;;;17.45;11.50;;;;;;;31.03;44.42;100824.31;6238138;22;20028;-81
2023/06/27 09:34:06;;;;;;;20.08;13.38;;;;;;;30.83;44.22;100833.25;6220892;22;20447;-78
2023/06/27 09:36:40;;;;;;;17.10;12.73;;;;;;;30.79;44.70;100843.88;6230630;22;20525;-80
2023/06/27 09:39:16;;;;;;;21.65;12.38;;;;;;;30.85;45.36;100839.28;6213314;22;20328;-81
2023/06/27 09:41:52;;;;;;;14.98;11.98;;;;;;;31.02;44.17;100825.38;6224869;22;20027;-80
2023/06/27 09:44:26;;;;;;;17.70;12.43;;;;;;;31.11;44.11;100834.75;6204823;22;20069;-79
2023/06/27 09:47:00;;;;;;;19.40;12.65;;;;;;;31.14;43.56;100847.09;6201259;22;20019;-80
2023/06/27 09:49:34;;;;;;;13.77;11.38;;;;;;;30.80;43.97;100820.03;6193634;22;20024;-81
2023/06/27 09:52:13;;;;;;;20.05;12.02;;;;;;;30.33;45.19;100820.84;6201119;22;20431;-79
2023/06/27 09:54:48;;;;;;;16.73;12.70;;;;;;;30.36;45.75;100812.09;6194714;22;20024;-80
2023/06/27 09:57:16;;;;;;;14.38;11.70;;;;;;;30.70;45.63;100833.69;6194509;22;20529;-79
2023/06/27 09:59:48;;;;;;;23.95;14.23;;;;;;;31.04;44.00;100834.16;6200227;22;20314;-78
2023/06/27 10:02:15;;;;;;;25.40;13.00;;;;;;;31.42;42.86;100834.91;6197588;22;20034;-77
2023/06/27 10:04:45;;;;;;;16.30;12.90;;;;;;;31.51;43.44;100836.03;6198378;22;20611;-80
2023/06/27 10:07:14;;;;;;;19.20;12.65;;;;;;;31.37;42.99;100790.97;6222091;22;20392;-80
2023/06/27 10:09:51;;;;;;;16.85;13.10;;;;;;;31.70;42.56;100814.34;6197520;22;20091;-81
2023/06/27 10:12:18;;;;;;;15.52;11.77;;;;;;;31.94;42.36;100792.69;6188935;22;20516;-82
2023/06/27 10:14:45;;;;;;;18.90;12.65;;;;;;;31.33;42.92;100735.81;6195015;22;20023;-81
2023/06/27 10:17:20;;;;;;;14.82;12.57;;;;;;;31.81;42.89;100809.72;6216306;22;20495;-79
2023/06/27 10:19:53;;;;;;;25.75;12.88;;;;;;;31.79;42.46;100790.78;6195190;22;20480;-80
2023/06/27 10:22:21;;;;;;;21.98;12.98;;;;;;;32.05;41.40;100805.38;6203874;22;20458;-79
2023/06/27 10:25:00;;;;;;;17.15;12.13;;;;;;;32.38;42.04;100814.09;6199611;22;20015;-79
2023/06/27 10:27:26;;;;;;;15.98;12.15;;;;;;;31.47;43.18;100804.72;6213572;22;20020;-80
2023/06/27 10:29:53;;;;;;;17.80;13.43;;;;;;;31.30;44.38;100810.41;6186692;22;20213;-81
2023/06/27 10:32:20;;;;;;;18.13;13.25;;;;;;;31.40;43.31;100804.16;6219361;22;20525;-77
2023/06/27 10:34:47;;;;;;;15.32;12.30;;;;;;;31.71;41.96;100794.06;6184478;22;20081;-82
2023/06/27 10:37:29;;;;;;;16.63;12.90;;;;;;;32.01;42.13;100752.09;6204731;22;20090;-81
2023/06/27 10:40:06;;;;;;;13.05;11.68;;;;;;;31.47;42.50;100777.31;6197867;22;20020;-80
2023/06/27 10:42:52;;;;;;;21.38;13.15;;;;;;;30.59;43.79;100737.75;6222814;22;20137;-80
2023/06/27 10:45:19;;;;;;;17.95;12.55;;;;;;;30.84;43.93;100791.88;6199158;22;20026;-78
2023/06/27 10:47:52;;;;;;;17.65;13.65;;;;;;;30.61;42.86;100701.84;6205198;22;20180;-80
2023/06/27 10:50:22;;;;;;;14.90;11.52;;;;;;;31.65;41.52;100757.59;6212132;22;20102;-79
2023/06/27 10:53:05;;;;;;;17.20;11.30;;;;;;;32.24;41.87;100785.59;6197191;22;20024;-81
2023/06/27 10:55:37;;;;;;;18.52;12.20;;;;;;;32.30;41.67;100757.81;6211083;22;20370;-81
2023/06/27 10:58:13;;;;;;;16.35;11.80;;;;;;;31.86;41.84;100774.03;6198361;22;20020;-81
2023/06/27 11:00:46;;;;;;;16.27;11.82;;;;;;;31.58;43.00;100778.13;6176329;22;20016;-79
2023/06/27 11:03:25;;;;;;;20.58;12.50;;;;;;;31.84;42.90;100765.25;6176302;22;20415;-82
2023/06/27 11:06:09;;;;;;;12.37;11.03;;;;;;;32.45;41.11;100765.19;6193694;22;20353;-79
2023/06/27 11:08:44;;;;;;;15.43;11.13;;;;;;;32.89;40.27;100748.03;6167054;22;20503;-78
2023/06/27 11:11:33;;;;;;;13.07;11.05;;;;;;;33.07;38.89;100719.09;6129786;22;20050;-80
2023/06/27 11:14:07;;;;;;;20.98;11.82;;;;;;;33.26;39.72;100735.75;6136361;22;20421;-77
2023/06/27 11:16:38;;;;;;;16.15;10.45;;;;;;;33.73;39.17;100748.09;6140833;22;20525;-81
2023/06/27 11:19:10;;;;;;;16.20;11.02;;;;;;;33.84;38.47;100751.59;6146023;22;20186;-80
2023/06/27 11:21:46;;;;;;;18.00;12.20;;;;;;;33.71;39.03;100731.03;6162164;22;20020;-80
2023/06/27 11:24:13;;;;;;;16.25;11.30;;;;;;;33.79;39.51;100724.09;6193118;22;20324;-80
2023/06/27 11:26:50;;;;;;;18.85;11.38;;;;;;;33.76;39.54;100732.94;6174683;22;20023;-79
2023/06/27 11:29:23;;;;;;;15.40;11.80;;;;;;;34.02;39.07;100725.25;6142761;22;20027;-80
2023/06/27 11:32:09;;;;;;;15.55;10.55;;;;;;;34.08;39.44;100737.91;6149955;22;20435;-80
2023/06/27 11:34:46;;;;;;;12.45;11.15;;;;;;;33.66;39.31;100722.00;6190820;22;20074;-80
2023/06/27 11:37:28;;;;;;;18.00;10.70;;;;;;;33.86;39.40;100716.31;6183895;22;20350;-80
2023/06/27 11:40:07;;;;;;;18.23;12.00;;;;;;;33.65;40.13;100732.19;6236077;22;20022;-80